Time;durP1;ratioP1;P1;durP2;ratioP2;P2;SDS_P1;SDS_P2;PMS_P1;PMS_P2;Temp;Humidity;BMP_temperature;BMP_pressure;BME280_temperature;BME280_humidity;BME280_pressure;Samples;Min_cycle;Max_cycle;Signal;HPM_P1;HPM_P2
2022/10/30 00:01:55;;;;;;;13.43;4.70;;;;;;;20.25;49.75;97868.59;5045227;28;20267;-73
2022/10/30 00:04:20;;;;;;;17.60;4.77;;;;;;;20.16;50.77;97859.16;5050485;28;20286;-72
2022/10/30 00:06:47;;;;;;;16.50;4.77;;;;;;;20.08;50.67;97865.47;5049739;28;20266;-74
2022/10/30 00:09:13;;;;;;;12.03;4.40;;;;;;;20.04;50.75;97860.75;5048811;28;20175;-74
2022/10/30 00:11:39;;;;;;;19.20;4.63;;;;;;;20.05;50.67;97855.22;5050432;28;20511;-75
2022/10/30 00:14:04;;;;;;;18.53;4.20;;;;;;;20.00;50.69;97855.00;5058272;28;20206;-73
2022/10/30 00:16:30;;;;;;;18.40;4.53;;;;;;;19.95;51.32;97849.44;5042086;28;20421;-73
2022/10/30 00:18:55;;;;;;;20.50;4.97;;;;;;;19.90;51.25;97849.22;5050685;28;20266;-72
2022/10/30 00:21:21;;;;;;;19.20;5.63;;;;;;;19.93;50.99;97848.81;5049889;28;20217;-73
2022/10/30 00:23:51;;;;;;;9.00;4.30;;;;;;;19.90;51.15;97850.03;5032391;28;20203;-72
2022/10/30 00:26:18;;;;;;;17.47;4.97;;;;;;;19.91;51.18;97850.88;5049068;28;20195;-73
2022/10/30 00:28:43;;;;;;;15.03;4.50;;;;;;;19.91;51.28;97848.22;5043304;28;20440;-73
2022/10/30 00:31:09;;;;;;;22.53;4.57;;;;;;;19.88;51.32;97840.63;5049426;28;20453;-73
2022/10/30 00:33:34;;;;;;;19.70;4.03;;;;;;;19.83;51.04;97843.84;5052531;28;20202;-72
2022/10/30 00:36:00;;;;;;;18.80;4.03;;;;;;;19.80;51.62;97845.03;5054196;28;20590;-73
2022/10/30 00:38:26;;;;;;;18.27;3.90;;;;;;;19.80;51.79;97847.69;5053423;28;20219;-73
2022/10/30 00:40:51;;;;;;;11.50;3.97;;;;;;;19.76;51.44;97843.78;5059185;28;20228;-74
2022/10/30 00:43:32;;;;;;;13.70;3.77;;;;;;;19.67;52.04;97842.28;5055620;28;20182;-73
2022/10/30 00:46:01;;;;;;;21.30;4.80;;;;;;;19.70;52.20;97843.75;5054270;28;20269;-73
2022/10/30 00:48:27;;;;;;;13.70;3.90;;;;;;;19.73;52.06;97838.88;5052092;28;20428;-73
2022/10/30 00:50:53;;;;;;;18.23;4.10;;;;;;;19.76;51.65;97837.63;5052598;28;20442;-73
2022/10/30 00:53:19;;;;;;;12.57;4.60;;;;;;;19.74;51.93;97837.84;5052872;28;20222;-72
2022/10/30 00:55:48;;;;;;;16.67;4.63;;;;;;;19.73;51.66;97838.88;5052714;28;20425;-72
2022/10/30 00:58:16;;;;;;;22.17;5.23;;;;;;;19.76;51.46;97837.63;5053119;28;20472;-73
2022/10/30 01:00:49;;;;;;;9.63;3.63;;;;;;;19.83;51.00;97829.69;5044390;28;20524;-73
2022/10/30 01:03:15;;;;;;;13.73;5.33;;;;;;;19.84;50.70;97828.69;5051925;28;20413;-73
2022/10/30 01:05:43;;;;;;;14.00;4.63;;;;;;;19.78;51.00;97830.28;5041109;28;20444;-73
2022/10/30 01:08:09;;;;;;;15.87;4.13;;;;;;;19.70;51.28;97828.63;5050948;28;20179;-72
2022/10/30 01:10:34;;;;;;;14.07;4.00;;;;;;;19.71;51.45;97829.44;5052575;28;20544;-73
2022/10/30 01:13:00;;;;;;;19.40;4.40;;;;;;;19.71;51.78;97834.78;5053411;28;20182;-73
2022/10/30 01:15:30;;;;;;;21.87;4.50;;;;;;;19.75;51.45;97826.19;5060182;28;20198;-73
2022/10/30 01:18:06;;;;;;;14.00;4.03;;;;;;;19.75;51.02;97825.38;5051430;28;20474;-72
2022/10/30 01:21:00;;;;;;;15.03;4.10;;;;;;;19.70;51.69;97828.63;5044632;28;20417;-72
2022/10/30 01:23:38;;;;;;;17.00;4.40;;;;;;;19.71;51.93;97827.59;5053192;28;20409;-73
2022/10/30 01:26:13;;;;;;;18.20;3.80;;;;;;;19.70;51.26;97827.81;5053685;28;20421;-73
2022/10/30 01:29:18;;;;;;;18.17;4.43;;;;;;;19.55;52.30;97819.91;5046252;28;20427;-73
2022/10/30 01:32:03;;;;;;;14.00;4.07;;;;;;;19.60;52.29;97822.84;5051089;28;20463;-73
2022/10/30 01:35:01;;;;;;;13.30;4.70;;;;;;;19.57;52.60;97824.06;5052940;28;20447;-73
2022/10/30 01:37:40;;;;;;;17.10;6.17;;;;;;;19.56;52.59;97834.84;5054879;28;20414;-74
2022/10/30 01:40:12;;;;;;;12.53;5.17;;;;;;;19.48;52.79;97828.69;5053244;28;20425;-73
2022/10/30 01:42:37;;;;;;;17.03;4.97;;;;;;;19.46;52.97;97827.25;5058756;28;20943;-73
2022/10/30 01:45:03;;;;;;;13.57;4.30;;;;;;;19.39;52.51;97832.53;5050896;28;20450;-73
2022/10/30 01:48:07;;;;;;;11.87;4.20;;;;;;;19.38;52.81;97817.59;5051450;28;20214;-73
2022/10/30 01:50:44;;;;;;;14.70;4.80;;;;;;;19.39;52.54;97818.41;5044252;28;20213;-73
2022/10/30 01:53:35;;;;;;;12.97;4.43;;;;;;;19.39;52.81;97811.25;5051604;28;20445;-73
2022/10/30 01:56:17;;;;;;;13.60;4.60;;;;;;;19.34;52.96;97811.00;5048240;28;20504;-73
2022/10/30 01:58:59;;;;;;;8.17;3.70;;;;;;;19.31;53.24;97817.53;5046955;28;20432;-73
2022/10/30 02:01:26;;;;;;;20.23;4.30;;;;;;;19.29;53.20;97811.59;5050823;28;20506;-73
2022/10/30 02:03:51;;;;;;;14.70;4.33;;;;;;;19.30;53.43;97815.91;5049989;28;20599;-73
2022/10/30 02:06:17;;;;;;;10.40;4.17;;;;;;;19.29;53.00;97806.28;5052710;28;20917;-72
2022/10/30 02:08:42;;;;;;;14.63;3.90;;;;;;;19.24;53.68;97802.56;5051315;28;20262;-73
2022/10/30 02:11:08;;;;;;;15.93;4.40;;;;;;;19.21;53.70;97797.63;5052426;28;20272;-73
2022/10/30 02:13:34;;;;;;;12.50;4.77;;;;;;;19.25;53.68;97793.56;5055095;28;20174;-72
2022/10/30 02:15:59;;;;;;;12.60;4.13;;;;;;;19.26;53.61;97796.03;5056771;28;20420;-73
2022/10/30 02:18:25;;;;;;;18.53;4.00;;;;;;;19.26;53.72;97789.91;5049649;28;20186;-72
2022/10/30 02:20:50;;;;;;;14.93;4.20;;;;;;;19.24;53.72;97791.94;5052614;28;20248;-72
2022/10/30 02:23:17;;;;;;;20.07;4.17;;;;;;;19.28;53.65;97794.00;5052129;28;20252;-72
2022/10/30 02:25:44;;;;;;;17.63;4.60;;;;;;;19.34;52.70;97792.41;5051420;28;20185;-73
2022/10/30 02:28:10;;;;;;;15.13;4.23;;;;;;;19.28;52.01;97787.88;5050125;28;20426;-73
2022/10/30 02:30:35;;;;;;;14.67;4.40;;;;;;;19.33;52.14;97783.63;5052515;28;20450;-72
2022/10/30 02:33:01;;;;;;;14.73;3.73;;;;;;;19.37;52.07;97789.38;5050839;28;20183;-72
2022/10/30 02:35:26;;;;;;;16.47;5.50;;;;;;;19.44;52.52;97784.09;5051909;28;20218;-72
2022/10/30 02:37:52;;;;;;;13.40;4.10;;;;;;;19.44;51.98;97787.56;5055597;28;20275;-72
2022/10/30 02:40:17;;;;;;;11.57;4.87;;;;;;;19.51;52.19;97786.78;5051957;28;20542;-72
2022/10/30 02:42:43;;;;;;;15.93;4.37;;;;;;;19.57;52.14;97793.97;5058468;28;20187;-73
2022/10/30 02:45:08;;;;;;;15.63;4.17;;;;;;;19.62;51.94;97788.91;5051685;28;20206;-72
2022/10/30 02:47:34;;;;;;;19.83;4.30;;;;;;;19.63;51.87;97791.34;5051085;28;20185;-73
2022/10/30 02:49:59;;;;;;;20.20;6.13;;;;;;;19.60;52.10;97790.94;5052188;28;20206;-72
2022/10/30 02:52:25;;;;;;;12.70;4.60;;;;;;;19.57;52.18;97778.84;5051608;28;20235;-70
2022/10/30 02:54:50;;;;;;;17.07;4.27;;;;;;;19.59;52.57;97783.97;5054504;28;20718;-73
2022/10/30 02:57:16;;;;;;;12.23;4.57;;;;;;;19.64;52.52;97797.50;5050176;28;20547;-72
2022/10/30 02:59:41;;;;;;;17.73;4.80;;;;;;;19.63;52.15;97791.34;5050853;28;20593;-73
2022/10/30 03:02:06;;;;;;;24.87;5.53;;;;;;;19.43;52.82;97785.91;5051267;28;20179;-73
2022/10/30 03:04:32;;;;;;;18.80;5.37;;;;;;;19.40;53.31;97785.50;5051732;28;20581;-73
2022/10/30 03:06:57;;;;;;;14.20;5.10;;;;;;;19.31;53.75;97782.16;5052800;28;20336;-72
2022/10/30 03:09:23;;;;;;;17.67;5.53;;;;;;;19.33;54.02;97790.75;5051597;28;20266;-72
2022/10/30 03:11:48;;;;;;;20.33;5.87;;;;;;;19.38;53.99;97785.69;5048492;28;20214;-72
2022/10/30 03:14:14;;;;;;;18.30;6.20;;;;;;;19.38;53.91;97783.03;5049677;28;20198;-73
2022/10/30 03:16:39;;;;;;;12.40;5.37;;;;;;;19.36;54.26;97785.06;5044530;28;20275;-74
2022/10/30 03:19:04;;;;;;;14.27;5.77;;;;;;;19.25;54.67;97793.56;5045885;28;20712;-72
2022/10/30 03:21:30;;;;;;;18.87;6.63;;;;;;;19.26;54.64;97787.25;5046627;28;20178;-74
2022/10/30 03:23:55;;;;;;;13.67;5.73;;;;;;;19.10;55.20;97791.84;5042522;28;20281;-73
2022/10/30 03:26:21;;;;;;;20.90;6.07;;;;;;;19.21;55.09;97787.00;5045014;28;20184;-73
2022/10/30 03:28:47;;;;;;;19.10;6.30;;;;;;;19.19;55.20;97788.00;5050601;28;20190;-73
2022/10/30 03:31:15;;;;;;;21.13;6.83;;;;;;;19.18;55.41;97789.03;5046250;28;20230;-74
2022/10/30 03:33:41;;;;;;;18.23;6.07;;;;;;;19.21;55.29;97797.63;5041482;28;20210;-74
2022/10/30 03:36:08;;;;;;;19.30;5.90;;;;;;;19.24;55.14;97792.75;5041775;28;20422;-73
2022/10/30 03:38:33;;;;;;;17.50;6.27;;;;;;;19.22;55.28;97801.94;5045310;28;20194;-72
2022/10/30 03:40:59;;;;;;;17.53;6.00;;;;;;;19.14;55.41;97798.41;5042264;28;20407;-72
2022/10/30 03:43:24;;;;;;;19.57;6.17;;;;;;;19.11;55.67;97803.25;5046333;28;20274;-72
2022/10/30 03:45:53;;;;;;;15.17;6.20;;;;;;;19.12;55.55;97805.75;5049703;28;20695;-74
2022/10/30 03:48:20;;;;;;;13.67;5.97;;;;;;;19.09;55.40;97800.81;5038669;28;20183;-72
2022/10/30 03:50:46;;;;;;;17.10;6.57;;;;;;;19.11;55.50;97806.75;5045656;28;20457;-73
2022/10/30 03:53:12;;;;;;;18.63;5.70;;;;;;;19.12;55.73;97811.06;5040398;28;20945;-73
2022/10/30 03:55:37;;;;;;;20.90;6.73;;;;;;;19.12;55.35;97813.72;5046381;28;20198;-72
2022/10/30 03:58:03;;;;;;;15.60;5.80;;;;;;;19.06;55.56;97811.81;5042187;28;20225;-73
2022/10/30 04:00:29;;;;;;;17.37;6.40;;;;;;;19.03;55.77;97817.50;5041804;28;20245;-73
2022/10/30 04:02:54;;;;;;;19.93;5.73;;;;;;;19.00;55.82;97818.72;5044971;28;20849;-73
2022/10/30 04:05:21;;;;;;;18.00;5.53;;;;;;;18.96;55.90;97813.97;5041298;28;20302;-73
2022/10/30 04:07:47;;;;;;;15.47;5.57;;;;;;;18.88;56.27;97815.75;5052905;28;20197;-73
2022/10/30 04:10:13;;;;;;;16.57;6.13;;;;;;;18.88;56.17;97806.94;5040540;28;20459;-73
2022/10/30 04:12:39;;;;;;;17.50;6.03;;;;;;;18.84;56.34;97813.63;5046124;28;20186;-72
2022/10/30 04:15:06;;;;;;;20.83;6.33;;;;;;;18.83;55.99;97815.47;5043007;28;20456;-71
2022/10/30 04:17:31;;;;;;;24.47;5.90;;;;;;;18.72;56.33;97821.31;5046109;28;20179;-73
2022/10/30 04:19:57;;;;;;;19.60;5.83;;;;;;;18.58;56.66;97825.66;5049171;28;20517;-72
2022/10/30 04:22:22;;;;;;;16.60;5.37;;;;;;;18.54;56.92;97819.88;5043048;28;20188;-72
2022/10/30 04:24:48;;;;;;;11.37;5.73;;;;;;;18.54;56.85;97822.53;5051925;28;20203;-72
2022/10/30 04:27:14;;;;;;;16.07;5.63;;;;;;;18.52;56.80;97821.94;5041735;28;20661;-72
2022/10/30 04:29:41;;;;;;;14.40;5.80;;;;;;;18.51;56.74;97820.28;5047758;28;20179;-72
2022/10/30 04:32:07;;;;;;;12.13;5.57;;;;;;;18.45;56.91;97813.06;5044381;28;20544;-72
2022/10/30 04:34:33;;;;;;;15.43;5.77;;;;;;;18.45;56.93;97826.34;5046547;28;21032;-74
2022/10/30 04:36:58;;;;;;;11.57;5.90;;;;;;;18.46;56.77;97822.66;5052773;28;20429;-73
2022/10/30 04:39:23;;;;;;;19.80;6.43;;;;;;;18.49;56.59;97826.78;5041046;28;20675;-74
2022/10/30 04:41:49;;;;;;;15.93;5.67;;;;;;;18.50;56.40;97831.06;5048849;28;20573;-73
2022/10/30 04:44:14;;;;;;;16.23;5.40;;;;;;;18.48;56.38;97830.44;5042620;28;20639;-73
2022/10/30 04:46:40;;;;;;;22.20;6.20;;;;;;;18.46;56.51;97827.97;5039314;28;20743;-73
2022/10/30 04:49:05;;;;;;;18.63;6.20;;;;;;;18.48;56.57;97831.28;5039300;28;20195;-74
2022/10/30 04:51:31;;;;;;;19.30;6.50;;;;;;;18.44;56.71;97830.00;5029075;28;20198;-73
2022/10/30 04:53:57;;;;;;;28.60;6.37;;;;;;;18.46;56.93;97830.63;5059349;28;20202;-72
2022/10/30 04:56:23;;;;;;;17.73;6.60;;;;;;;18.49;56.88;97824.13;5049191;28;20266;-72
2022/10/30 04:58:49;;;;;;;18.90;6.00;;;;;;;18.46;57.05;97820.03;5061496;28;20990;-71
2022/10/30 05:01:14;;;;;;;14.87;6.87;;;;;;;18.40;57.13;97824.25;5053765;28;20184;-73
2022/10/30 05:03:39;;;;;;;17.47;7.63;;;;;;;18.41;57.29;97825.06;5063096;28;20217;-73
2022/10/30 05:06:10;;;;;;;18.80;6.40;;;;;;;18.40;57.14;97818.94;5057096;28;20189;-74
2022/10/30 05:08:36;;;;;;;14.07;5.90;;;;;;;18.40;56.90;97820.75;5043699;28;20559;-73
2022/10/30 05:11:03;;;;;;;18.73;6.07;;;;;;;18.30;57.15;97822.88;5050027;28;20453;-73
2022/10/30 05:13:29;;;;;;;17.83;6.97;;;;;;;18.22;57.50;97816.69;5045360;28;20171;-73
2022/10/30 05:15:54;;;;;;;14.80;6.63;;;;;;;18.16;57.72;97812.13;5056553;28;20456;-74
2022/10/30 05:18:20;;;;;;;20.50;6.37;;;;;;;18.16;57.45;97817.44;5053621;28;20184;-73
2022/10/30 05:20:46;;;;;;;25.00;6.50;;;;;;;18.12;57.70;97813.53;5067112;28;20247;-73
2022/10/30 05:23:11;;;;;;;20.97;6.03;;;;;;;18.10;57.96;97812.88;5054348;28;20176;-73
2022/10/30 05:25:37;;;;;;;13.70;6.30;;;;;;;18.01;57.98;97806.84;5058953;28;20986;-75
2022/10/30 05:28:04;;;;;;;11.80;5.83;;;;;;;18.01;58.03;97804.19;5061831;28;20689;-73
2022/10/30 05:30:32;;;;;;;10.83;5.53;;;;;;;18.00;58.09;97805.22;5041022;28;20198;-73
2022/10/30 05:32:58;;;;;;;16.50;6.00;;;;;;;17.92;58.22;97806.09;5041907;28;20504;-72
2022/10/30 05:35:24;;;;;;;18.93;6.73;;;;;;;17.94;58.31;97804.09;5018121;28;20646;-72
2022/10/30 05:37:49;;;;;;;16.53;5.90;;;;;;;17.95;58.16;97808.38;5054240;28;20430;-73
2022/10/30 05:40:15;;;;;;;14.93;6.53;;;;;;;17.89;58.35;97801.19;5064024;28;20183;-73
2022/10/30 05:42:47;;;;;;;24.03;7.73;;;;;;;17.94;58.05;97805.94;5055137;28;20191;-73
2022/10/30 05:45:13;;;;;;;18.17;7.33;;;;;;;17.95;58.01;97811.03;5057049;28;20233;-73
2022/10/30 05:47:39;;;;;;;15.93;6.97;;;;;;;17.99;57.90;97810.72;5060596;28;20876;-73
2022/10/30 05:50:05;;;;;;;20.43;6.70;;;;;;;18.02;57.79;97810.34;5052947;28;20504;-71
2022/10/30 05:52:30;;;;;;;22.20;8.27;;;;;;;17.99;57.44;97800.09;5062242;28;20170;-72
2022/10/30 05:54:56;;;;;;;37.30;12.83;;;;;;;17.97;57.89;97810.88;5050774;28;21033;-73
2022/10/30 05:57:21;;;;;;;26.10;8.70;;;;;;;17.93;58.14;97815.69;5066180;28;20654;-73
2022/10/30 05:59:46;;;;;;;16.73;9.27;;;;;;;17.90;57.91;97809.94;5048747;28;20206;-73
2022/10/30 06:02:12;;;;;;;20.33;8.60;;;;;;;17.88;58.33;97810.16;5066122;28;20257;-73
2022/10/30 06:04:37;;;;;;;14.63;7.93;;;;;;;17.91;58.37;97808.94;5060112;28;20268;-72
2022/10/30 06:07:03;;;;;;;20.37;7.83;;;;;;;17.86;58.37;97817.47;5054341;28;20211;-73
2022/10/30 06:09:28;;;;;;;25.20;6.83;;;;;;;17.87;58.56;97816.44;5066146;28;20186;-73
2022/10/30 06:11:54;;;;;;;13.93;7.30;;;;;;;17.87;58.65;97821.75;5053625;28;20208;-72
2022/10/30 06:14:20;;;;;;;20.70;8.07;;;;;;;17.84;58.19;97824.75;5057991;28;20211;-73
2022/10/30 06:16:46;;;;;;;14.43;6.63;;;;;;;17.73;58.43;97817.28;5049260;28;20184;-73
2022/10/30 06:19:11;;;;;;;17.53;7.03;;;;;;;17.69;58.13;97821.28;5058902;28;20614;-73
2022/10/30 06:21:36;;;;;;;11.87;6.30;;;;;;;17.56;58.41;97825.41;5056971;28;20420;-73
2022/10/30 06:24:02;;;;;;;17.27;7.10;;;;;;;17.60;58.21;97824.03;5062866;28;20688;-71
2022/10/30 06:26:27;;;;;;;20.90;7.80;;;;;;;17.63;58.07;97822.84;5057463;28;20198;-71
2022/10/30 06:28:53;;;;;;;22.90;6.50;;;;;;;17.68;57.94;97815.19;5066609;28;20265;-72
2022/10/30 06:31:18;;;;;;;14.20;6.13;;;;;;;17.73;57.78;97822.59;5056984;28;20229;-72
2022/10/30 06:33:44;;;;;;;14.93;6.23;;;;;;;17.70;57.74;97814.97;5051969;28;20213;-73
2022/10/30 06:36:09;;;;;;;16.23;5.67;;;;;;;17.62;58.19;97821.19;5060043;28;20187;-74
2022/10/30 06:38:35;;;;;;;15.73;6.33;;;;;;;17.63;58.53;97823.69;5056210;28;20594;-73
2022/10/30 06:41:00;;;;;;;15.17;5.57;;;;;;;17.70;58.04;97822.94;5058802;28;20183;-74
2022/10/30 06:43:26;;;;;;;15.43;6.90;;;;;;;17.73;57.72;97827.88;5052700;28;20277;-74
2022/10/30 06:45:51;;;;;;;12.90;6.63;;;;;;;17.80;57.63;97829.63;5066795;28;20193;-74
2022/10/30 06:48:17;;;;;;;16.53;5.60;;;;;;;17.85;57.22;97821.13;5055712;28;20305;-74
2022/10/30 06:50:43;;;;;;;15.23;6.00;;;;;;;17.85;57.29;97820.28;5046260;28;20210;-72
2022/10/30 06:53:08;;;;;;;16.43;5.40;;;;;;;17.99;56.97;97826.63;5034892;28;20520;-73
2022/10/30 06:55:34;;;;;;;18.60;8.10;;;;;;;18.14;57.23;97822.13;5031658;28;20207;-74
2022/10/30 06:57:59;;;;;;;18.97;8.70;;;;;;;18.26;57.44;97820.63;5038320;28;20191;-73
2022/10/30 07:00:25;;;;;;;19.40;10.97;;;;;;;18.37;57.00;97829.13;5040871;28;20182;-73
2022/10/30 07:02:58;;;;;;;15.50;7.23;;;;;;;18.32;56.87;97819.06;5040322;28;20187;-72
2022/10/30 07:05:23;;;;;;;13.20;6.93;;;;;;;18.38;56.79;97826.25;5038419;28;20263;-72
2022/10/30 07:07:49;;;;;;;14.67;9.27;;;;;;;18.50;56.74;97823.94;5035663;28;20418;-72
2022/10/30 07:10:14;;;;;;;11.83;7.20;;;;;;;18.49;56.91;97827.63;5038266;28;20214;-72
2022/10/30 07:12:40;;;;;;;11.20;6.97;;;;;;;18.54;57.26;97822.53;5034814;28;20237;-73
2022/10/30 07:15:05;;;;;;;15.03;7.03;;;;;;;18.63;56.81;97823.25;5041058;28;20754;-72
2022/10/30 07:17:31;;;;;;;17.93;5.53;;;;;;;18.51;55.00;97830.06;5036313;28;20221;-72
2022/10/30 07:19:56;;;;;;;19.50;5.60;;;;;;;18.53;55.24;97828.88;5039079;28;20658;-72
2022/10/30 07:22:22;;;;;;;13.17;5.13;;;;;;;18.54;54.94;97827.84;5040128;28;20219;-71
2022/10/30 07:24:47;;;;;;;14.83;5.43;;;;;;;18.57;55.40;97827.47;5036256;28;20207;-71
2022/10/30 07:27:12;;;;;;;14.30;5.20;;;;;;;18.42;55.09;97832.00;5035466;28;20179;-73
2022/10/30 07:29:38;;;;;;;9.03;4.80;;;;;;;18.49;55.05;97832.91;5040229;28;20262;-72
2022/10/30 07:32:04;;;;;;;15.80;6.13;;;;;;;18.62;54.92;97831.41;5040716;28;20294;-73
2022/10/30 07:34:30;;;;;;;11.70;5.20;;;;;;;18.66;54.40;97835.31;5035817;28;20221;-73
2022/10/30 07:36:55;;;;;;;16.77;5.43;;;;;;;18.65;54.12;97836.34;5036357;28;20250;-73
2022/10/30 07:39:20;;;;;;;10.73;4.90;;;;;;;18.74;53.85;97832.56;5034922;28;20973;-72
2022/10/30 07:41:48;;;;;;;10.40;4.77;;;;;;;18.82;53.72;97827.13;5037597;28;20187;-72
2022/10/30 07:44:13;;;;;;;16.50;4.00;;;;;;;18.90;53.14;97833.31;5034923;28;20234;-73
2022/10/30 07:46:39;;;;;;;13.60;4.73;;;;;;;18.85;52.52;97826.75;5036596;28;20916;-73
2022/10/30 07:49:04;;;;;;;13.17;4.63;;;;;;;19.15;52.56;97831.91;5041804;28;20235;-72
2022/10/30 07:51:30;;;;;;;15.80;4.70;;;;;;;19.47;52.58;97828.88;5038296;28;20241;-73
2022/10/30 07:53:55;;;;;;;10.80;4.40;;;;;;;19.77;52.08;97824.16;5041081;28;20291;-73
2022/10/30 07:56:21;;;;;;;18.50;5.40;;;;;;;20.21;51.83;97823.97;5040431;28;20223;-71
2022/10/30 07:58:46;;;;;;;14.77;5.97;;;;;;;20.64;51.00;97825.53;5039503;28;20266;-72
2022/10/30 08:01:11;;;;;;;12.53;5.13;;;;;;;21.02;50.00;97822.31;5039746;28;20180;-73
2022/10/30 08:03:37;;;;;;;11.60;4.13;;;;;;;21.30;48.03;97827.44;5039696;28;20190;-72
2022/10/30 08:06:02;;;;;;;8.67;3.87;;;;;;;21.55;47.04;97829.44;5040793;28;20540;-72
2022/10/30 08:08:28;;;;;;;13.70;4.30;;;;;;;21.76;46.51;97824.94;5037384;28;20191;-72
2022/10/30 08:10:53;;;;;;;19.07;4.03;;;;;;;22.03;45.99;97825.66;5035731;28;20227;-73
2022/10/30 08:13:19;;;;;;;13.93;4.53;;;;;;;22.16;45.59;97827.47;5037248;28;20703;-73
2022/10/30 08:15:44;;;;;;;13.73;4.80;;;;;;;22.48;45.21;97821.41;5036406;28;20212;-70
2022/10/30 08:18:10;;;;;;;14.97;4.40;;;;;;;22.84;44.57;97831.44;5034140;28;20180;-72
2022/10/30 08:20:35;;;;;;;13.97;5.00;;;;;;;23.03;44.38;97831.50;5047233;28;20183;-73
2022/10/30 08:23:00;;;;;;;16.10;4.63;;;;;;;23.33;43.89;97825.50;5044731;28;20219;-72
2022/10/30 08:25:28;;;;;;;13.57;4.40;;;;;;;23.35;43.61;97826.13;5048501;28;20254;-72
2022/10/30 08:28:01;;;;;;;12.50;4.93;;;;;;;23.59;42.95;97829.81;5009928;28;20244;-74
2022/10/30 08:30:29;;;;;;;14.77;4.33;;;;;;;23.95;42.70;97826.53;5014489;28;20972;-73
2022/10/30 08:32:59;;;;;;;21.80;5.13;;;;;;;23.87;42.43;97820.47;5015894;28;20956;-72
2022/10/30 08:35:25;;;;;;;15.20;5.03;;;;;;;24.20;42.38;97821.09;5037366;28;20485;-73
2022/10/30 08:37:57;;;;;;;12.57;5.00;;;;;;;24.59;41.97;97816.25;5035940;28;20897;-73
2022/10/30 08:40:23;;;;;;;14.33;4.63;;;;;;;24.81;41.47;97813.91;5036380;28;20183;-72
2022/10/30 08:42:53;;;;;;;15.57;4.77;;;;;;;24.97;41.04;97815.09;5033896;28;20410;-73
2022/10/30 08:45:19;;;;;;;12.20;4.37;;;;;;;25.22;40.63;97819.44;5035589;28;21053;-73
2022/10/30 08:47:44;;;;;;;16.17;5.03;;;;;;;25.43;39.95;97812.72;5036718;28;20513;-73
2022/10/30 08:50:11;;;;;;;15.17;5.40;;;;;;;25.51;39.83;97806.19;5035478;28;20452;-73
2022/10/30 08:52:36;;;;;;;14.57;5.03;;;;;;;25.40;39.57;97812.34;5035583;28;20191;-73
2022/10/30 08:55:02;;;;;;;11.73;5.00;;;;;;;25.62;39.94;97809.91;5035843;28;20453;-73
2022/10/30 08:57:28;;;;;;;15.17;4.77;;;;;;;25.62;39.44;97809.91;5040496;28;20190;-72
2022/10/30 08:59:53;;;;;;;15.20;5.00;;;;;;;25.84;39.02;97807.41;5037479;28;20731;-72
2022/10/30 09:02:18;;;;;;;18.33;4.70;;;;;;;26.07;38.30;97808.44;5040245;28;20389;-73
2022/10/30 09:04:44;;;;;;;13.10;4.67;;;;;;;25.92;37.99;97808.91;5038058;28;20278;-72
2022/10/30 09:07:09;;;;;;;12.07;4.40;;;;;;;26.34;38.38;97810.56;5036781;28;20230;-75
2022/10/30 09:09:35;;;;;;;12.00;5.07;;;;;;;26.62;38.14;97808.91;5038837;28;20183;-72
2022/10/30 09:12:00;;;;;;;12.17;4.77;;;;;;;26.76;37.79;97810.25;5042878;28;20273;-72
2022/10/30 09:14:26;;;;;;;13.47;4.30;;;;;;;26.86;37.75;97822.25;5049207;28;20226;-72
2022/10/30 09:16:53;;;;;;;17.07;4.53;;;;;;;27.14;37.95;97811.44;5045282;28;20199;-72
2022/10/30 09:19:18;;;;;;;20.80;5.17;;;;;;;27.20;37.44;97814.22;5048554;28;20278;-73
2022/10/30 09:21:44;;;;;;;12.70;4.83;;;;;;;27.17;37.21;97818.19;5037325;28;20509;-73
2022/10/30 09:24:09;;;;;;;11.40;4.50;;;;;;;27.45;37.32;97816.47;5046085;28;20224;-73
2022/10/30 09:26:35;;;;;;;12.20;4.83;;;;;;;27.79;37.04;97810.22;5046391;28;20524;-73
2022/10/30 09:29:00;;;;;;;8.57;4.20;;;;;;;27.60;36.54;97813.19;5046662;28;20175;-74
2022/10/30 09:31:25;;;;;;;15.07;4.67;;;;;;;27.72;36.75;97824.66;5047057;28;20290;-75
2022/10/30 09:33:51;;;;;;;15.20;5.30;;;;;;;28.03;36.67;97825.06;5044447;28;20255;-74
2022/10/30 09:36:17;;;;;;;19.17;4.53;;;;;;;28.16;35.73;97823.06;5046687;28;20642;-74
2022/10/30 09:38:42;;;;;;;10.30;4.80;;;;;;;28.30;35.77;97824.31;5045239;28;20570;-74
2022/10/30 09:41:16;;;;;;;19.90;4.87;;;;;;;27.86;35.90;97825.13;5049774;28;20272;-75
2022/10/30 09:44:07;;;;;;;20.83;4.40;;;;;;;27.95;35.75;97832.75;5046508;28;20180;-74
2022/10/30 09:47:07;;;;;;;16.67;4.10;;;;;;;28.22;35.18;97816.69;5037976;28;20437;-71
2022/10/30 09:49:38;;;;;;;10.43;4.23;;;;;;;28.66;35.59;97824.69;5038557;28;20430;-73
2022/10/30 09:52:14;;;;;;;10.13;4.40;;;;;;;29.03;34.85;97822.31;5035179;28;20469;-71
2022/10/30 09:55:08;;;;;;;14.77;4.93;;;;;;;29.37;34.85;97813.94;5037696;28;20453;-71
2022/10/30 09:57:51;;;;;;;13.10;4.03;;;;;;;29.40;34.37;97827.75;5044957;28;20486;-72
2022/10/30 10:00:22;;;;;;;17.60;4.93;;;;;;;29.76;34.07;97821.75;5038816;28;20418;-73
2022/10/30 10:02:57;;;;;;;14.03;3.90;;;;;;;29.73;33.43;97819.59;5047526;28;20434;-74
2022/10/30 10:05:45;;;;;;;12.53;3.63;;;;;;;29.89;33.17;97823.16;5038903;28;20456;-73
2022/10/30 10:08:41;;;;;;;16.33;4.27;;;;;;;29.97;32.72;97817.28;5035062;28;20496;-74
2022/10/30 10:11:13;;;;;;;17.10;4.37;;;;;;;30.25;32.70;97819.78;5033818;28;21003;-72
2022/10/30 10:13:50;;;;;;;10.93;4.47;;;;;;;30.17;32.79;97816.53;5047810;28;20456;-73
2022/10/30 10:16:21;;;;;;;10.53;3.83;;;;;;;30.46;32.59;97817.97;5038871;28;20422;-71
2022/10/30 10:19:14;;;;;;;8.53;4.00;;;;;;;30.65;33.26;97821.00;5048268;28;20925;-74
2022/10/30 10:21:46;;;;;;;8.83;3.50;;;;;;;30.53;32.80;97820.41;5041506;28;20421;-74
2022/10/30 10:24:18;;;;;;;12.60;4.90;;;;;;;30.68;32.15;97819.66;5059162;28;20445;-74
2022/10/30 10:27:00;;;;;;;16.50;5.13;;;;;;;30.71;32.16;97814.53;5039530;28;20523;-74
2022/10/30 10:29:51;;;;;;;15.30;4.27;;;;;;;30.73;32.37;97811.53;5043493;28;20422;-73
2022/10/30 10:32:31;;;;;;;11.37;4.13;;;;;;;30.86;32.12;97805.59;5058346;28;20524;-73
2022/10/30 10:35:24;;;;;;;11.67;3.63;;;;;;;30.99;31.93;97809.66;5042713;28;20542;-74
2022/10/30 10:38:11;;;;;;;14.80;4.10;;;;;;;30.96;32.13;97815.63;5040781;28;20423;-73
2022/10/30 10:40:56;;;;;;;8.27;4.00;;;;;;;31.28;31.46;97814.53;5046290;28;20471;-74
2022/10/30 10:43:44;;;;;;;5.50;3.13;;;;;;;31.31;31.56;97810.47;5047271;28;20427;-73
2022/10/30 10:46:56;;;;;;;9.83;3.70;;;;;;;31.39;31.35;97802.59;5057562;28;20442;-73
2022/10/30 10:50:06;;;;;;;14.30;3.97;;;;;;;31.76;30.75;97797.94;5042555;28;20454;-72
2022/10/30 10:52:55;;;;;;;9.73;3.70;;;;;;;31.78;30.73;97798.47;5050461;28;20428;-72
2022/10/30 10:55:31;;;;;;;7.87;4.60;;;;;;;32.01;31.51;97801.63;5033328;28;20519;-73
2022/10/30 10:58:01;;;;;;;9.53;3.40;;;;;;;32.11;30.57;97800.75;5055175;28;20430;-73
2022/10/30 11:00:28;;;;;;;8.40;3.90;;;;;;;32.30;30.91;97793.63;5044221;28;20431;-73
2022/10/30 11:03:09;;;;;;;10.20;3.43;;;;;;;32.32;30.38;97788.75;5042825;28;20842;-74
2022/10/30 11:05:52;;;;;;;9.37;4.20;;;;;;;32.40;31.96;97784.63;5038859;28;20444;-73
2022/10/30 11:08:24;;;;;;;16.63;4.13;;;;;;;32.22;30.23;97793.38;5040332;28;20419;-75
2022/10/30 11:10:56;;;;;;;12.40;3.70;;;;;;;32.24;30.13;97792.03;5042759;28;20449;-74
2022/10/30 11:13:24;;;;;;;12.37;3.70;;;;;;;32.37;31.46;97785.19;5036883;28;20556;-73
2022/10/30 11:16:00;;;;;;;11.90;3.50;;;;;;;32.35;29.56;97789.28;5051892;28;20449;-74
2022/10/30 11:18:26;;;;;;;13.97;3.50;;;;;;;32.39;29.73;97787.59;5035409;28;20502;-75
2022/10/30 11:21:03;;;;;;;7.90;3.40;;;;;;;32.45;31.11;97781.88;5040493;28;20452;-74
2022/10/30 11:23:39;;;;;;;9.17;3.60;;;;;;;32.48;30.52;97777.78;5049536;28;20179;-75
2022/10/30 11:26:16;;;;;;;11.87;3.77;;;;;;;32.26;30.52;97776.28;5042079;28;20425;-75
2022/10/30 11:29:12;;;;;;;10.40;3.23;;;;;;;32.34;30.49;97779.50;5041204;28;20424;-75
2022/10/30 11:31:40;;;;;;;6.13;3.20;;;;;;;32.29;31.07;97783.88;5039773;28;20489;-75
2022/10/30 11:34:17;;;;;;;10.00;3.70;;;;;;;32.29;30.37;97785.78;5037933;28;20459;-74
2022/10/30 11:36:51;;;;;;;13.17;3.50;;;;;;;32.16;30.68;97781.75;5056169;28;20423;-75